Flight Track Log - Related Links

Times and Time Zones

All times are in EDT time to prevent confusion due to time zone crossing. See the POE411 flight status page for this flight to view local times or setup timezone preferences in your user account.


Time Position Orientation Groundspeed Altitude Reporting Facility
EDT Latitude Longitude Course Direction KTS MPH feet Rate Location/Type
Fri 11:39:08 AM 43.6333 -79.3500 55° Northeast 120 138 1,400  Level Toronto Center
Fri 11:40:08 AM 43.6500 -79.2833 71° East 170 196 3,400 1,900 Climbing Toronto Center
Fri 11:41:08 AM 43.6833 -79.2167 55° Northeast 230 265 5,200 1,950 Climbing Toronto Center
Fri 11:42:08 AM 43.7167 -79.1333 61° Northeast 250 288 7,300 2,200 Climbing Toronto Center
Fri 11:43:00 AM 43.8616 -78.7595 68° East  Level FlightAware Approximate
Fri 11:43:08 AM 43.7500 -79.0333 65° Northeast 260 299 9,600  Level Toronto Center
Fri 11:44:00 AM 43.8986 -78.6528 55° Northeast  Level FlightAware Approximate
Fri 11:44:08 AM 43.7833 -78.9333 65° Northeast 260 299 11,800  Level Toronto Center
Fri 11:45:08 AM 43.8167 -78.8667 55° Northeast 250 288 13,400 1,600 Climbing Toronto Center
Fri 11:46:08 AM 43.8500 -78.7833 61° Northeast 250 288 15,000 1,600 Climbing Toronto Center
Fri 11:47:08 AM 43.8833 -78.6833 65° Northeast 260 299 16,600 1,400 Climbing Toronto Center
Fri 11:48:08 AM 43.9167 -78.5833 65° Northeast 270 311 17,800 1,400 Climbing Toronto Center
Fri 11:49:08 AM 43.9500 -78.5000 61° Northeast 280 322 19,400 1,300 Climbing Toronto Center
Fri 11:50:08 AM 43.9667 -78.4000 77° East 290 334 20,400 1,100 Climbing Toronto Center
Fri 11:51:08 AM 44.0000 -78.2833 68° East 290 334 21,600 1,100 Climbing Toronto Center
Fri 11:52:08 AM 44.0333 -78.2000 61° Northeast 300 345 22,600 700 Climbing Toronto Center
Fri 11:53:08 AM 44.0667 -78.0833 68° East 310 357 23,000 200 Climbing Toronto Center
Fri 11:54:08 AM 44.1167 -77.9667 59° Northeast 330 380 23,000  Level Toronto Center
Fri 11:55:08 AM 44.1500 -77.8500 68° East 350 403 23,000  Level Toronto Center
Fri 11:56:08 AM 44.2000 -77.7000 65° Northeast 360 414 23,000  Level Toronto Center
Fri 11:57:08 AM 44.2500 -77.5833 59° Northeast 360 414 23,000  Level Toronto Center
Fri 11:58:08 AM 44.2833 -77.4500 71° East 360 414 23,000  Level Toronto Center
Fri 11:59:08 AM 44.3167 -77.3333 68° East 360 414 23,000  Level Toronto Center
Fri 12:00:08 PM 44.3500 -77.1833 73° East 360 414 23,000  Level Toronto Center
Fri 12:01:08 PM 44.4000 -77.0667 59° Northeast 360 414 23,000  Level Toronto Center
Fri 12:02:08 PM 44.4333 -76.9167 73° East 360 414 23,000  Level Toronto Center
Fri 12:03:09 PM 44.4667 -76.7833 71° East 360 414 23,000  Level Toronto Center
Fri 12:04:09 PM 44.5000 -76.6667 68° East 360 414 23,000  Level Toronto Center
Fri 12:05:09 PM 44.5333 -76.5167 73° East 360 414 23,000  Level Toronto Center
Fri 12:06:09 PM 44.5667 -76.4000 68° East 370 426 23,000  Level Toronto Center
Fri 12:07:09 PM 44.6000 -76.2667 71° East 360 414 23,000  Level Toronto Center
Fri 12:08:09 PM 44.6500 -76.1333 62° Northeast 360 414 23,000  Level Toronto Center
Fri 12:09:09 PM 44.6667 -76.0000 80° East 360 414 23,000  Level Toronto Center
Fri 12:10:09 PM 44.7167 -75.8833 59° Northeast 360 414 23,000  Level Toronto Center
Fri 12:11:09 PM 44.7500 -75.7333 73° East 360 414 23,000  Level Toronto Center
Fri 12:12:09 PM 44.8000 -75.6167 59° Northeast 360 414 23,000  Level Toronto Center
Fri 12:13:09 PM 44.8333 -75.5000 68° East 350 403 23,000 -400 Level Toronto Center
Fri 12:14:09 PM 44.8833 -75.3667 62° Northeast 350 403 22,200 -1,300 Descending Toronto Center
Fri 12:15:09 PM 44.9167 -75.2333 71° East 360 414 20,400 -1,750 Descending Toronto Center
Fri 12:16:09 PM 44.9500 -75.1000 71° East 360 414 18,700 -1,600 Descending Toronto Center
Fri 12:17:09 PM 45.0000 -74.9833 59° Northeast 350 403 17,200 -1,600 Descending Toronto Center
Fri 12:18:09 PM 45.0500 -74.8667 59° Northeast 350 403 15,500 -1,659 Descending Toronto Center
Fri 12:19:12 PM 45.0833 -74.7667 65° Northeast 340 391 13,800 -1,561 Descending Montreal Center
Fri 12:20:12 PM 45.1167 -74.6333 70° East 320 368 12,300 -1,500 Descending Montreal Center
Fri 12:21:12 PM 45.1500 -74.5500 60° Northeast 290 334 10,800 -1,300 Descending Montreal Center
Fri 12:22:12 PM 45.1833 -74.4500 65° Northeast 270 311 9,700 -1,100 Descending Montreal Center
Fri 12:23:12 PM 45.2000 -74.3500 77° East 260 299 8,600 -1,100 Descending Montreal Center
Fri 12:24:12 PM 45.2333 -74.2500 65° Northeast 250 288 7,500 -1,050 Descending Montreal Center
Fri 12:25:12 PM 45.2500 -74.1667 74° East 210 242 6,500 -900 Descending Montreal Center
Fri 12:26:12 PM 45.2500 -74.0833 90° East 210 242 5,700 -800 Descending Montreal Center
Fri 12:27:12 PM 45.2667 -74.0167 70° East 180 207 4,900 -750 Descending Montreal Center
Fri 12:28:12 PM 45.3000 -73.9667 47° Northeast 160 184 4,200 -800 Descending Montreal Center
Fri 12:29:12 PM 45.3333 -73.9167 47° Northeast 170 196 3,300 -850 Descending Montreal Center
Fri 12:30:12 PM 45.3667 -73.8667 46° Northeast 140 161 2,500 -750 Descending Montreal Center
Fri 12:31:12 PM 45.3833 -73.8500 35° Northeast 130 150 1,800 -700 Descending Montreal Center
Fri 12:32:12 PM 45.4167 -73.8000 46° Northeast 130 150 1,100 -650 Descending Montreal Center
Fri 12:33:12 PM 45.4333 -73.7667 55° Northeast 120 138 500 -500 Descending Montreal Center
Fri 12:34:12 PM 45.4500 -73.7500 35° Northeast 70 81 100 -400 Descending Montreal Center

Login

Don't have an account? Register now (free) for customized features, flight alerts, and more!